Time;durP1;ratioP1;P1;durP2;ratioP2;P2;SDS_P1;SDS_P2;PMS_P1;PMS_P2;Temp;Humidity;BMP_temperature;BMP_pressure;BME280_temperature;BME280_humidity;BME280_pressure;Samples;Min_cycle;Max_cycle;Signal;HPM_P1;HPM_P2
2022/01/16 00:09:08;;;;;;;32.25;29.05;;;;;;;;;;12551209;28;20381;-78
2022/01/16 00:15:18;;;;;;;30.20;27.20;;;;;;;;;;12549174;28;20037;-77
2022/01/16 00:21:32;;;;;;;30.25;27.25;;;;;;;;;;12536605;28;20060;-78
2022/01/16 00:27:49;;;;;;;32.97;29.58;;;;;;;;;;12536464;28;20385;-77
2022/01/16 00:34:04;;;;;;;30.08;27.10;;;;;;;;;;12536751;28;20068;-78
2022/01/16 00:40:30;;;;;;;31.08;28.08;;;;;;;;;;12534975;28;20045;-77
2022/01/16 00:47:19;;;;;;;29.90;27.02;;;;;;;;;;12546303;28;20036;-77
2022/01/16 00:53:45;;;;;;;30.05;27.27;;;;;;;;;;12557830;28;20477;-77
2022/01/16 01:00:01;;;;;;;28.58;25.88;;;;;;;;;;12527183;28;20389;-77
2022/01/16 01:06:13;;;;;;;28.85;25.98;;;;;;;;;;12544362;28;20485;-77
2022/01/16 01:12:30;;;;;;;30.48;27.50;;;;;;;;;;12542786;28;20222;-78
2022/01/16 01:18:44;;;;;;;30.50;27.50;;;;;;;;;;12540923;28;20060;-77
2022/01/16 01:25:01;;;;;;;27.63;24.77;;;;;;;;;;12541341;28;20044;-76
2022/01/16 01:31:20;;;;;;;27.42;24.77;;;;;;;;;;12542665;28;20044;-79
2022/01/16 01:37:39;;;;;;;28.10;25.02;;;;;;;;;;12539805;28;20508;-78
2022/01/16 01:57:01;;;;;;;27.73;24.73;;;;;;;;;;12560785;28;20052;-77
2022/01/16 02:07:28;;;;;;;26.95;22.42;;;;;;;;;;12697085;27;20431;-77
2022/01/16 02:13:47;;;;;;;24.33;19.00;;;;;;;;;;12676207;28;20039;-75
2022/01/16 02:39:17;;;;;;;23.15;18.83;;;;;;;;;;12598539;28;20039;-78
2022/01/16 02:45:34;;;;;;;19.65;17.63;;;;;;;;;;12593998;28;20127;-78
2022/01/16 02:51:43;;;;;;;25.90;20.50;;;;;;;;;;12593662;28;20045;-78
2022/01/16 03:01:03;;;;;;;26.95;20.67;;;;;;;;;;12697517;27;20443;-76
2022/01/16 03:13:48;;;;;;;25.45;21.67;;;;;;;;;;12595567;28;20473;-78
2022/01/16 03:26:29;;;;;;;36.42;29.70;;;;;;;;;;12592230;28;20039;-77
2022/01/16 03:32:43;;;;;;;27.38;23.60;;;;;;;;;;12594496;28;20032;-79
2022/01/16 03:38:51;;;;;;;22.63;18.88;;;;;;;;;;12575923;28;20044;-78
2022/01/16 03:45:02;;;;;;;22.73;20.30;;;;;;;;;;12575184;28;20055;-77
2022/01/16 03:51:16;;;;;;;25.50;21.13;;;;;;;;;;12593251;28;20044;-79
2022/01/16 03:57:31;;;;;;;26.65;21.90;;;;;;;;;;12591788;28;20033;-77
2022/01/16 04:03:54;;;;;;;26.63;22.35;;;;;;;;;;12575378;28;20068;-78
2022/01/16 04:10:05;;;;;;;29.65;25.13;;;;;;;;;;12577209;28;20056;-76
2022/01/16 04:16:19;;;;;;;23.00;19.73;;;;;;;;;;12593415;28;20037;-78
2022/01/16 04:22:32;;;;;;;19.95;17.40;;;;;;;;;;12555600;28;20052;-77
2022/01/16 04:28:41;;;;;;;20.00;16.50;;;;;;;;;;12557623;28;20064;-78
2022/01/16 04:36:50;;;;;;;20.88;18.15;;;;;;;;;;12661928;27;20431;-75
2022/01/16 04:49:33;;;;;;;27.52;20.25;;;;;;;;;;12642606;28;20036;-78
2022/01/16 04:56:03;;;;;;;21.35;18.52;;;;;;;;;;12614574;28;20048;-76
2022/01/16 05:02:17;;;;;;;16.30;14.27;;;;;;;;;;12644504;28;20044;-77
2022/01/16 05:08:26;;;;;;;18.60;15.40;;;;;;;;;;12641658;28;20040;-76
2022/01/16 05:20:59;;;;;;;18.98;15.00;;;;;;;;;;12641671;28;20036;-75
2022/01/16 05:27:11;;;;;;;16.02;13.60;;;;;;;;;;12641330;28;20028;-75
2022/01/16 05:33:21;;;;;;;13.85;12.32;;;;;;;;;;12641956;28;20048;-75
2022/01/16 05:39:46;;;;;;;11.10;10.00;;;;;;;;;;12643750;28;20400;-77
2022/01/16 05:45:52;;;;;;;15.15;13.60;;;;;;;;;;12620543;28;20036;-76
2022/01/16 05:52:05;;;;;;;12.13;10.68;;;;;;;;;;12591599;28;20048;-77
2022/01/16 05:58:17;;;;;;;19.13;16.08;;;;;;;;;;12595715;28;20395;-76
2022/01/16 06:04:32;;;;;;;16.50;13.20;;;;;;;;;;12594993;28;20055;-75
2022/01/16 06:11:01;;;;;;;14.00;12.48;;;;;;;;;;12612000;28;20035;-76
2022/01/16 06:17:35;;;;;;;11.23;9.98;;;;;;;;;;12559736;28;20037;-77
2022/01/16 06:23:53;;;;;;;12.10;10.55;;;;;;;;;;12543933;28;20029;-76
2022/01/16 06:30:16;;;;;;;12.32;11.05;;;;;;;;;;12590665;28;20040;-76
2022/01/16 06:48:57;;;;;;;13.50;11.27;;;;;;;;;;12596302;28;20452;-76
2022/01/16 06:55:03;;;;;;;16.38;11.90;;;;;;;;;;12597808;28;20029;-76
2022/01/16 07:01:27;;;;;;;11.35;9.77;;;;;;;;;;12595110;28;20044;-76
2022/01/16 07:07:38;;;;;;;11.73;9.40;;;;;;;;;;12583925;28;20048;-76
2022/01/16 07:13:51;;;;;;;14.87;13.27;;;;;;;;;;12585379;28;20055;-78
2022/01/16 07:20:08;;;;;;;13.05;11.43;;;;;;;;;;12613120;28;20021;-76
2022/01/16 07:26:24;;;;;;;14.20;12.02;;;;;;;;;;12750859;27;20491;-75
2022/01/16 07:32:27;;;;;;;;;;;;;;;;;;12725788;28;20038;-77
2022/01/16 07:38:29;;;;;;;16.67;13.52;;;;;;;;;;12703614;28;19915;-77
2022/01/16 07:44:37;;;;;;;15.05;13.00;;;;;;;;;;12719842;28;20031;-77
2022/01/16 07:50:43;;;;;;;13.98;12.05;;;;;;;;;;12719075;27;20038;-77
2022/01/16 07:56:48;;;;;;;13.57;12.05;;;;;;;;;;12718944;28;20046;-78
2022/01/16 08:02:53;;;;;;;14.27;12.82;;;;;;;;;;12718822;28;20054;-77
2022/01/16 08:09:16;;;;;;;16.00;14.65;;;;;;;;;;12687843;27;21028;-78
2022/01/16 08:15:19;;;;;;;17.30;15.82;;;;;;;;;;12686565;28;20059;-78
2022/01/16 08:21:23;;;;;;;15.73;14.32;;;;;;;;;;12686366;28;20058;-79
2022/01/16 08:27:26;;;;;;;19.73;17.92;;;;;;;;;;12684955;28;20052;-78
2022/01/16 08:33:33;;;;;;;21.63;19.67;;;;;;;;;;12675888;27;20046;-78
2022/01/16 08:39:36;;;;;;;21.75;19.85;;;;;;;;;;12770511;27;20027;-79
2022/01/16 08:45:42;;;;;;;;;;;;;;;;;;12770517;27;20039;-79
2022/01/16 08:51:44;;;;;;;17.55;16.05;;;;;;;;;;12769145;27;19907;-79
2022/01/16 08:57:50;;;;;;;16.05;14.65;;;;;;;;;;12770012;27;20023;-79
2022/01/16 09:03:55;;;;;;;15.90;14.40;;;;;;;;;;12768716;27;20047;-79
2022/01/16 09:10:02;;;;;;;18.20;16.60;;;;;;;;;;12752863;27;20031;-79
2022/01/16 09:16:05;;;;;;;19.45;17.77;;;;;;;;;;12778421;27;20032;-79
2022/01/16 09:22:09;;;;;;;21.77;19.88;;;;;;;;;;12734705;27;20023;-79
2022/01/16 09:28:14;;;;;;;19.48;17.77;;;;;;;;;;12717107;27;20054;-79
2022/01/16 09:34:17;;;;;;;17.15;15.55;;;;;;;;;;12717224;27;20035;-79
2022/01/16 09:40:23;;;;;;;19.45;17.55;;;;;;;;;;12751295;27;20031;-79
2022/01/16 09:46:35;;;;;;;20.20;18.33;;;;;;;;;;12699616;27;20051;-79
2022/01/16 09:52:40;;;;;;;16.50;15.00;;;;;;;;;;12715801;27;20035;-79
2022/01/16 09:58:44;;;;;;;58.88;52.95;;;;;;;;;;12715865;27;20035;-80
2022/01/16 10:04:47;;;;;;;22.38;20.08;;;;;;;;;;12714910;27;20066;-79
2022/01/16 10:10:50;;;;;;;17.63;15.93;;;;;;;;;;12714946;27;20042;-79
2022/01/16 10:16:57;;;;;;;16.95;15.25;;;;;;;;;;12732706;27;20475;-79
2022/01/16 10:23:06;;;;;;;15.98;14.43;;;;;;;;;;12715793;27;20475;-79
2022/01/16 10:29:21;;;;;;;12.13;11.02;;;;;;;;;;12713669;27;20502;-80
2022/01/16 10:35:25;;;;;;;12.13;11.02;;;;;;;;;;12698117;27;20476;-79
2022/01/16 10:41:34;;;;;;;13.75;12.48;;;;;;;;;;12731280;27;20035;-80
2022/01/16 10:47:53;;;;;;;18.52;16.77;;;;;;;;;;12730818;27;20047;-80
2022/01/16 10:53:59;;;;;;;10.85;9.85;;;;;;;;;;12729708;27;20031;-79
2022/01/16 11:00:09;;;;;;;14.75;13.20;;;;;;;;;;12713887;27;20032;-79
2022/01/16 11:06:13;;;;;;;20.40;18.50;;;;;;;;;;12728956;27;20407;-79
2022/01/16 11:12:17;;;;;;;15.95;14.45;;;;;;;;;;12712409;27;20391;-78
2022/01/16 11:18:24;;;;;;;13.23;12.05;;;;;;;;;;12728949;27;20038;-78
2022/01/16 11:24:36;;;;;;;14.68;13.38;;;;;;;;;;12711936;27;20043;-78
2022/01/16 11:30:41;;;;;;;10.52;9.43;;;;;;;;;;12729344;27;20391;-78
2022/01/16 11:36:44;;;;;;;11.73;10.70;;;;;;;;;;12728926;27;20372;-79
2022/01/16 11:43:11;;;;;;;12.05;10.95;;;;;;;;;;12711824;27;20383;-79
2022/01/16 11:49:19;;;;;;;10.98;9.88;;;;;;;;;;12718620;27;20204;-79
2022/01/16 11:55:35;;;;;;;10.88;9.88;;;;;;;;;;12728392;27;20039;-80
2022/01/16 12:01:45;;;;;;;10.75;9.68;;;;;;;;;;12729037;27;20053;-79
2022/01/16 12:07:50;;;;;;;9.13;8.23;;;;;;;;;;12712524;28;20058;-79
2022/01/16 12:13:58;;;;;;;10.40;9.43;;;;;;;;;;12713664;28;20387;-78
2022/01/16 12:20:23;;;;;;;11.10;9.98;;;;;;;;;;12712369;28;20039;-78
2022/01/16 12:26:35;;;;;;;9.35;8.40;;;;;;;;;;12714085;28;20046;-78
2022/01/16 12:32:48;;;;;;;9.95;9.05;;;;;;;;;;12711249;28;20031;-79
2022/01/16 12:39:11;;;;;;;9.02;8.13;;;;;;;;;;12711041;28;20031;-78
2022/01/16 12:45:14;;;;;;;10.50;9.50;;;;;;;;;;12726909;28;20050;-78
2022/01/16 12:51:21;;;;;;;9.05;8.02;;;;;;;;;;12711744;27;20038;-79
2022/01/16 12:57:28;;;;;;;10.55;9.55;;;;;;;;;;12701953;27;20043;-78
2022/01/16 13:03:34;;;;;;;9.55;8.75;;;;;;;;;;12718330;27;20023;-78
2022/01/16 13:09:38;;;;;;;10.32;9.32;;;;;;;;;;12720383;27;20043;-79
2022/01/16 13:15:44;;;;;;;11.45;10.27;;;;;;;;;;12720027;27;20036;-78
2022/01/16 13:21:59;;;;;;;10.32;9.32;;;;;;;;;;12719327;27;20031;-78
2022/01/16 13:28:04;;;;;;;9.20;8.30;;;;;;;;;;12700899;27;20058;-80
2022/01/16 13:34:12;;;;;;;8.90;8.00;;;;;;;;;;12701573;27;20414;-79
2022/01/16 13:40:18;;;;;;;9.77;8.75;;;;;;;;;;12700830;27;20054;-80
2022/01/16 13:46:29;;;;;;;10.05;7.65;;;;;;;;;;12718136;27;20046;-80
2022/01/16 13:52:32;;;;;;;9.45;8.18;;;;;;;;;;12717263;27;20050;-79
2022/01/16 13:58:43;;;;;;;9.95;8.95;;;;;;;;;;12716208;27;20038;-80
2022/01/16 14:04:47;;;;;;;9.90;8.90;;;;;;;;;;12715251;27;20051;-79
2022/01/16 14:10:56;;;;;;;9.82;8.38;;;;;;;;;;12698936;27;20039;-79
2022/01/16 14:23:15;;;;;;;10.43;8.75;;;;;;;;;;12731327;27;20027;-79
2022/01/16 14:29:25;;;;;;;10.00;8.95;;;;;;;;;;12697146;27;20039;-79
2022/01/16 14:35:29;;;;;;;10.45;9.05;;;;;;;;;;12714499;27;20039;-79
2022/01/16 14:41:36;;;;;;;11.48;9.60;;;;;;;;;;12696313;27;20043;-79
2022/01/16 14:47:42;;;;;;;11.77;9.65;;;;;;;;;;12713350;27;20039;-80
2022/01/16 14:53:46;;;;;;;15.10;12.55;;;;;;;;;;12713603;27;20047;-80
2022/01/16 14:59:50;;;;;;;11.82;10.63;;;;;;;;;;12712944;27;20034;-80
2022/01/16 15:05:54;;;;;;;12.48;11.13;;;;;;;;;;12712578;27;20055;-80
2022/01/16 15:11:59;;;;;;;13.25;11.77;;;;;;;;;;12729499;27;20058;-79
2022/01/16 15:18:05;;;;;;;13.38;11.98;;;;;;;;;;12711659;27;20042;-79
2022/01/16 15:24:07;;;;;;;14.20;12.65;;;;;;;;;;12746492;27;20038;-79
2022/01/16 15:30:15;;;;;;;15.25;13.30;;;;;;;;;;12729251;27;20031;-79
2022/01/16 15:36:32;;;;;;;13.63;12.20;;;;;;;;;;12714674;27;20035;-79
2022/01/16 15:42:35;;;;;;;13.18;11.77;;;;;;;;;;12710889;27;20031;-79
2022/01/16 15:48:42;;;;;;;12.82;11.50;;;;;;;;;;12710521;27;20054;-79
2022/01/16 15:55:22;;;;;;;13.30;11.82;;;;;;;;;;12734147;27;20035;-80
2022/01/16 16:01:42;;;;;;;16.38;13.18;;;;;;;;;;12727910;27;20027;-78
2022/01/16 16:14:33;;;;;;;17.58;15.77;;;;;;;;;;12540518;28;20053;-78
2022/01/16 16:20:48;;;;;;;17.10;15.30;;;;;;;;;;12489219;28;20037;-77
2022/01/16 16:26:50;;;;;;;17.95;16.15;;;;;;;;;;12486373;28;20052;-79
2022/01/16 16:32:57;;;;;;;19.02;17.02;;;;;;;;;;12496445;28;20045;-77
2022/01/16 16:39:06;;;;;;;19.05;17.20;;;;;;;;;;12477491;28;20053;-79
2022/01/16 16:45:12;;;;;;;19.60;17.40;;;;;;;;;;12495831;28;20484;-79
2022/01/16 16:51:20;;;;;;;20.65;18.50;;;;;;;;;;12497181;28;20036;-78
2022/01/16 16:57:47;;;;;;;19.13;17.13;;;;;;;;;;12498584;28;20037;-76
2022/01/16 17:03:52;;;;;;;17.75;16.05;;;;;;;;;;12501267;28;20508;-79
2022/01/16 17:10:14;;;;;;;20.75;17.38;;;;;;;;;;12502020;28;20052;-77
2022/01/16 17:16:24;;;;;;;17.23;15.52;;;;;;;;;;12484799;28;20041;-79
2022/01/16 17:22:34;;;;;;;16.25;14.65;;;;;;;;;;12500031;28;20051;-77
2022/01/16 17:28:44;;;;;;;17.90;16.10;;;;;;;;;;12500331;28;20421;-78
2022/01/16 17:34:56;;;;;;;19.85;17.95;;;;;;;;;;12501056;28;20030;-79
2022/01/16 17:41:01;;;;;;;16.92;15.30;;;;;;;;;;12501822;28;20461;-77
2022/01/16 17:47:17;;;;;;;16.75;15.13;;;;;;;;;;12503088;28;20516;-78
2022/01/16 17:53:23;;;;;;;19.52;17.58;;;;;;;;;;12502925;28;20036;-79
2022/01/16 17:59:47;;;;;;;16.05;14.35;;;;;;;;;;12505168;28;20032;-79
2022/01/16 18:06:15;;;;;;;18.77;16.88;;;;;;;;;;12498423;28;20049;-78
2022/01/16 18:12:27;;;;;;;20.40;18.03;;;;;;;;;;12482444;28;20056;-78
2022/01/16 18:18:43;;;;;;;18.48;16.52;;;;;;;;;;12492751;28;20389;-78
2022/01/16 18:24:48;;;;;;;19.48;17.48;;;;;;;;;;12490592;28;20038;-79
2022/01/16 18:31:05;;;;;;;19.85;17.85;;;;;;;;;;12494635;28;20541;-78
2022/01/16 18:37:20;;;;;;;19.95;18.02;;;;;;;;;;12509926;28;20034;-77
2022/01/16 18:43:57;;;;;;;20.35;18.17;;;;;;;;;;12493555;28;20037;-80
2022/01/16 18:50:13;;;;;;;25.30;22.48;;;;;;;;;;12492508;28;20042;-79
2022/01/16 18:56:40;;;;;;;23.77;21.35;;;;;;;;;;12491504;28;20026;-77
2022/01/16 19:03:04;;;;;;;27.92;25.10;;;;;;;;;;12475258;28;20484;-79
2022/01/16 19:09:15;;;;;;;26.58;23.88;;;;;;;;;;12491387;28;20049;-78
2022/01/16 19:15:44;;;;;;;26.15;23.55;;;;;;;;;;12491224;28;20026;-79
2022/01/16 19:21:52;;;;;;;27.52;24.80;;;;;;;;;;12492591;28;20045;-77
2022/01/16 19:28:25;;;;;;;26.48;23.88;;;;;;;;;;12490918;28;20049;-76
2022/01/16 19:34:53;;;;;;;26.23;23.65;;;;;;;;;;12489630;28;20033;-78
2022/01/16 19:41:14;;;;;;;25.15;22.55;;;;;;;;;;12473737;28;20448;-77
2022/01/16 19:47:35;;;;;;;26.38;23.88;;;;;;;;;;12473365;28;20060;-78
2022/01/16 19:53:59;;;;;;;26.58;23.88;;;;;;;;;;12487500;28;20473;-76
2022/01/16 20:00:11;;;;;;;22.55;20.30;;;;;;;;;;12472035;28;20045;-78
2022/01/16 20:06:21;;;;;;;27.08;24.38;;;;;;;;;;12505545;28;20045;-77
2022/01/16 20:12:34;;;;;;;22.95;20.58;;;;;;;;;;12486957;28;20539;-79
2022/01/16 20:18:59;;;;;;;38.88;34.80;;;;;;;;;;12489233;28;20037;-78
2022/01/16 20:25:17;;;;;;;39.70;35.53;;;;;;;;;;12488225;28;20045;-77
2022/01/16 20:31:29;;;;;;;34.78;31.30;;;;;;;;;;12502470;28;20032;-79
2022/01/16 20:37:41;;;;;;;31.08;28.05;;;;;;;;;;12470617;28;20048;-79
2022/01/16 20:43:54;;;;;;;33.10;29.70;;;;;;;;;;12485343;28;20045;-77
2022/01/16 20:50:01;;;;;;;27.80;24.90;;;;;;;;;;12488336;28;20053;-79
2022/01/16 20:56:21;;;;;;;37.53;33.78;;;;;;;;;;12490590;28;20044;-78
2022/01/16 21:02:46;;;;;;;42.08;37.70;;;;;;;;;;12486251;28;20029;-78
2022/01/16 21:08:57;;;;;;;37.83;34.13;;;;;;;;;;12486915;28;20534;-78
2022/01/16 21:15:07;;;;;;;39.75;35.65;;;;;;;;;;12489124;28;20033;-78
2022/01/16 21:21:16;;;;;;;36.63;32.83;;;;;;;;;;12493859;28;20022;-78
2022/01/16 21:27:37;;;;;;;38.58;34.50;;;;;;;;;;12491896;28;20038;-78
2022/01/16 21:34:20;;;;;;;32.90;29.73;;;;;;;;;;12509678;28;20025;-77
2022/01/16 21:47:20;;;;;;;39.65;35.63;;;;;;;;;;12507874;28;20049;-80
2022/01/16 21:53:27;;;;;;;41.97;37.67;;;;;;;;;;12492906;28;20036;-78
2022/01/16 21:59:40;;;;;;;38.05;34.03;;;;;;;;;;12509335;28;20029;-77
2022/01/16 22:05:51;;;;;;;38.58;34.70;;;;;;;;;;12475428;28;20493;-79
2022/01/16 22:12:10;;;;;;;32.63;29.33;;;;;;;;;;12490583;28;20500;-79
2022/01/16 22:18:29;;;;;;;32.65;29.45;;;;;;;;;;12494645;28;20030;-79
2022/01/16 22:24:47;;;;;;;40.58;36.47;;;;;;;;;;12493130;28;20033;-78
2022/01/16 22:31:23;;;;;;;40.17;36.15;;;;;;;;;;12492722;28;20029;-77
2022/01/16 22:37:57;;;;;;;36.40;32.70;;;;;;;;;;12459818;28;20029;-79
2022/01/16 22:44:30;;;;;;;45.55;40.72;;;;;;;;;;12842384;27;20297;-77
2022/01/16 22:50:47;;;;;;;54.25;48.50;;;;;;;;;;12715107;28;20040;-76
2022/01/16 22:57:28;;;;;;;44.97;40.40;;;;;;;;;;12721880;28;20046;-77
2022/01/16 23:03:36;;;;;;;43.17;38.83;;;;;;;;;;12713771;28;20051;-79
2022/01/16 23:09:53;;;;;;;40.83;36.72;;;;;;;;;;12697612;27;20047;-78
2022/01/16 23:16:08;;;;;;;37.25;33.35;;;;;;;;;;12717812;28;20028;-78
2022/01/16 23:22:13;;;;;;;34.75;31.10;;;;;;;;;;12714989;28;20043;-77
2022/01/16 23:28:48;;;;;;;33.38;30.08;;;;;;;;;;12712908;28;20042;-77
2022/01/16 23:35:08;;;;;;;35.67;32.08;;;;;;;;;;12715312;28;20019;-79
2022/01/16 23:41:52;;;;;;;33.80;30.37;;;;;;;;;;12732278;27;20055;-77
2022/01/16 23:48:11;;;;;;;32.50;29.02;;;;;;;;;;12715414;28;20043;-79
2022/01/16 23:54:49;;;;;;;34.83;31.27;;;;;;;;;;12672543;28;20040;-78
